EHFZ

F16-a Sea

F16-a Sea, The Netherlands
METAR EHFZ 230725Z AUTO 11010KT 9999 FEW025 OVC030 03/M02 Q1026 W///H///
Observed Flight Rules
Feb-23 @ 07:25 UTC (39 minutes ago) Marginal Visual Flight Rules
Wind Visibility Clouds
110° at 10 knots 10,000+ meters
  • Few at 2,500' AGL
  • Overcast at 3,000' AGL
Temperatures Readings
Current 3°C / 37°F
Dewpoint -2°C / 28°F
Humidity 70%
Altimeter 30.3" Hg
Pressure 1026 hPa
Elevation 50
METAR EHFZ 230725Z AUTO 11010KT 9999 FEW025 OVC030 03/M02 Q1026 W///H///
Observed Flight Rules
Feb-23 @ 07:25 UTC
(39 minutes ago)
MVFR
Wind Visibility
110° at 10 knots 10,000+ meters
Clouds
  • Few at 2,500' AGL
  • Overcast at 3,000' AGL
Temperature Dewpoint
3°C / 37°F -2°C / 28°F
Humidity Altimeter Pressure
70% 30.3" Hg 1026 hPa